createdAt,value
2018-09-24T00:01:04.327Z,1.27
2018-09-24T00:03:33.046Z,1.07
2018-09-24T00:06:01.444Z,1.83
2018-09-24T00:08:29.908Z,1.37
2018-09-24T00:10:58.586Z,0.97
2018-09-24T00:13:26.982Z,0.90
2018-09-24T00:15:55.519Z,1.20
2018-09-24T00:18:24.006Z,1.10
2018-09-24T00:20:52.379Z,1.13
2018-09-24T00:23:20.867Z,1.40
2018-09-24T00:25:49.436Z,1.33
2018-09-24T00:28:17.835Z,1.50
2018-09-24T00:30:46.383Z,1.47
2018-09-24T00:33:15.351Z,1.63
2018-09-24T00:35:43.903Z,1.30
2018-09-24T00:38:12.463Z,1.30
2018-09-24T00:40:41.159Z,1.53
2018-09-24T00:43:09.683Z,1.63
2018-09-24T00:45:38.316Z,1.83
2018-09-24T00:48:06.971Z,2.23
2018-09-24T00:50:35.394Z,2.63
2018-09-24T00:53:03.853Z,2.37
2018-09-24T00:55:32.608Z,2.07
2018-09-24T00:58:01.112Z,2.17
2018-09-24T01:00:29.623Z,2.57
2018-09-24T01:02:58.303Z,2.20
2018-09-24T01:05:26.740Z,2.50
2018-09-24T01:07:55.222Z,2.53
2018-09-24T01:10:23.887Z,2.10
2018-09-24T01:12:52.431Z,1.90
2018-09-24T01:15:20.907Z,1.80
2018-09-24T01:17:49.658Z,2.20
2018-09-24T01:20:18.359Z,1.80
2018-09-24T01:22:46.866Z,2.93
2018-09-24T01:25:15.659Z,2.47
2018-09-24T01:27:44.259Z,2.53
2018-09-24T01:30:12.782Z,1.80
2018-09-24T01:32:41.372Z,2.47
2018-09-24T01:35:09.783Z,3.03
2018-09-24T01:37:38.199Z,3.23
2018-09-24T01:40:07.319Z,2.97
2018-09-24T01:42:35.767Z,2.50
2018-09-24T01:45:04.205Z,2.23
2018-09-24T01:47:32.921Z,3.40
2018-09-24T01:50:01.368Z,2.47
2018-09-24T01:52:29.797Z,2.80
2018-09-24T01:54:58.338Z,2.87
2018-09-24T01:57:26.844Z,1.90
2018-09-24T01:59:56.479Z,2.27
2018-09-24T02:02:24.911Z,2.33
2018-09-24T02:04:53.431Z,2.77
2018-09-24T02:07:22.074Z,2.87
2018-09-24T02:09:50.790Z,2.57
2018-09-24T02:12:19.672Z,2.97
2018-09-24T02:14:48.098Z,3.03
2018-09-24T02:17:20.251Z,2.93
2018-09-24T02:19:49.726Z,2.37
2018-09-24T02:22:25.141Z,2.93
2018-09-24T02:24:54.495Z,3.27
2018-09-24T02:27:22.999Z,3.33
2018-09-24T02:29:51.451Z,3.13
2018-09-24T02:32:20.031Z,3.17
2018-09-24T02:34:49.342Z,3.00
2018-09-24T02:37:18.850Z,3.53
2018-09-24T02:39:47.770Z,3.50
2018-09-24T02:42:16.625Z,3.20
2018-09-24T02:44:45.179Z,2.97
2018-09-24T02:47:13.675Z,3.83
2018-09-24T02:49:42.167Z,3.07
2018-09-24T02:52:10.757Z,3.00
2018-09-24T02:54:39.254Z,3.33
2018-09-24T02:57:07.691Z,3.20
2018-09-24T02:59:36.638Z,3.30
2018-09-24T03:02:05.146Z,2.03
2018-09-24T03:04:33.684Z,2.97
2018-09-24T03:07:02.157Z,3.70
2018-09-24T03:09:31.049Z,2.47
2018-09-24T03:11:59.547Z,3.73
2018-09-24T03:14:28.626Z,3.23
2018-09-24T03:16:57.162Z,3.27
2018-09-24T03:19:25.684Z,2.87
2018-09-24T03:21:54.578Z,3.60
2018-09-24T03:24:23.090Z,2.90
2018-09-24T03:26:51.500Z,3.07
2018-09-24T03:29:23.458Z,2.40
2018-09-24T03:31:52.135Z,2.10
2018-09-24T03:34:20.743Z,2.80
2018-09-24T03:36:50.013Z,3.50
2018-09-24T03:39:18.944Z,2.67
2018-09-24T03:41:47.443Z,2.87
2018-09-24T03:44:15.964Z,2.97
2018-09-24T03:46:44.500Z,2.27
2018-09-24T03:49:12.947Z,3.20
2018-09-24T03:51:41.547Z,2.53
2018-09-24T03:54:10.825Z,2.70
2018-09-24T03:56:39.671Z,2.53
2018-09-24T03:59:08.320Z,2.17
2018-09-24T04:01:36.698Z,1.93
2018-09-24T04:04:10.710Z,2.50
2018-09-24T04:06:44.370Z,1.90
2018-09-24T04:09:18.317Z,1.23
2018-09-24T04:11:52.031Z,1.40
2018-09-24T04:14:25.948Z,1.80
2018-09-24T04:16:59.665Z,1.23
2018-09-24T04:19:33.676Z,1.27
2018-09-24T04:22:07.422Z,1.70
2018-09-24T04:24:41.095Z,2.03
2018-09-24T04:27:14.752Z,2.40
2018-09-24T04:29:48.502Z,2.50
2018-09-24T04:32:22.187Z,2.73
2018-09-24T04:34:56.043Z,2.23
2018-09-24T04:37:29.875Z,3.27
2018-09-24T04:40:04.016Z,2.70
2018-09-24T04:42:37.649Z,2.90
2018-09-24T04:45:11.415Z,2.40
2018-09-24T04:47:44.890Z,2.80
2018-09-24T04:50:18.928Z,3.20
2018-09-24T04:52:52.608Z,2.53
2018-09-24T04:55:26.371Z,2.20
2018-09-24T04:58:00.068Z,3.47
2018-09-24T05:00:33.939Z,2.93
2018-09-24T05:03:07.691Z,3.20
2018-09-24T05:05:41.328Z,3.10
2018-09-24T05:08:15.112Z,2.70
2018-09-24T05:10:49.079Z,2.90
2018-09-24T05:13:22.879Z,2.07
2018-09-24T05:15:56.856Z,2.73
2018-09-24T05:18:30.699Z,3.30
2018-09-24T05:21:04.646Z,2.63
2018-09-24T05:23:38.326Z,2.60
2018-09-24T05:26:12.108Z,3.30
2018-09-24T05:28:45.902Z,2.93
2018-09-24T05:31:19.583Z,2.60
2018-09-24T05:33:53.319Z,2.87
2018-09-24T05:36:27.159Z,2.70
2018-09-24T05:39:00.695Z,2.00
2018-09-24T05:41:34.692Z,1.90
2018-09-24T05:44:08.442Z,2.37
2018-09-24T05:46:42.219Z,2.50
2018-09-24T05:49:15.962Z,2.27
2018-09-24T05:51:49.860Z,2.77
2018-09-24T05:54:23.618Z,2.40
2018-09-24T05:56:57.327Z,2.87
2018-09-24T05:59:31.111Z,2.10
2018-09-24T06:02:05.140Z,2.60
2018-09-24T06:04:38.921Z,1.70
2018-09-24T06:07:12.785Z,1.93
2018-09-24T06:09:46.502Z,1.73
2018-09-24T06:12:20.319Z,1.93
2018-09-24T06:14:54.079Z,2.03
2018-09-24T06:17:27.918Z,1.40
2018-09-24T06:20:01.544Z,2.00
2018-09-24T06:22:35.115Z,2.10
2018-09-24T06:25:08.970Z,2.23
2018-09-24T06:27:43.150Z,2.27
2018-09-24T06:30:16.902Z,2.00
2018-09-24T06:32:50.598Z,2.27
2018-09-24T06:35:24.290Z,2.00
2018-09-24T06:37:58.191Z,2.13
2018-09-24T06:40:31.942Z,1.30
2018-09-24T06:43:05.939Z,1.60
2018-09-24T06:45:39.555Z,1.50
2018-09-24T06:48:13.315Z,1.37
2018-09-24T06:50:47.006Z,1.47
2018-09-24T06:53:21.064Z,1.67
2018-09-24T06:55:54.687Z,1.53
2018-09-24T06:58:28.387Z,1.87
2018-09-24T07:01:02.168Z,1.30
2018-09-24T07:03:36.080Z,2.33
2018-09-24T07:06:09.671Z,1.57
2018-09-24T07:08:43.337Z,2.30
2018-09-24T07:11:17.163Z,1.57
2018-09-24T07:13:50.847Z,1.07
2018-09-24T07:16:24.623Z,1.80
2018-09-24T07:18:58.499Z,1.40
2018-09-24T07:21:32.223Z,1.43
2018-09-24T07:24:06.090Z,1.23
2018-09-24T07:26:39.848Z,1.53
2018-09-24T07:29:13.762Z,1.07
2018-09-24T07:31:47.599Z,1.40
2018-09-24T07:34:21.643Z,1.97
2018-09-24T07:36:55.231Z,1.80
2018-09-24T07:39:29.104Z,1.40
2018-09-24T07:42:02.856Z,1.23
2018-09-24T07:44:36.775Z,1.80
2018-09-24T07:47:11.461Z,1.50
2018-09-24T07:49:45.455Z,1.23
2018-09-24T07:52:19.230Z,1.50
2018-09-24T07:54:53.067Z,2.00
2018-09-24T07:57:26.787Z,2.00
2018-09-24T08:00:00.823Z,1.13
2018-09-24T08:02:34.446Z,0.70
2018-09-24T08:05:08.331Z,1.63
2018-09-24T08:07:41.984Z,1.10
2018-09-24T08:10:15.824Z,1.00
2018-09-24T08:12:49.561Z,1.00
2018-09-24T08:15:23.247Z,1.43
2018-09-24T08:17:57.023Z,1.10
2018-09-24T08:20:30.965Z,1.30
2018-09-24T08:23:04.662Z,1.17
2018-09-24T08:25:38.422Z,1.30
2018-09-24T08:28:12.140Z,1.37
2018-09-24T08:30:46.198Z,1.37
2018-09-24T08:33:20.051Z,1.53
2018-09-24T08:35:53.751Z,1.40
2018-09-24T08:38:27.527Z,1.43
2018-09-24T08:41:01.530Z,1.33
2018-09-24T08:43:35.219Z,1.30
2018-09-24T08:46:09.087Z,0.90
2018-09-24T08:48:42.875Z,1.40
2018-09-24T08:51:16.617Z,1.13
2018-09-24T08:53:50.211Z,1.10
2018-09-24T08:56:23.867Z,1.13
2018-09-24T08:58:57.610Z,1.00
2018-09-24T09:01:31.467Z,0.87
2018-09-24T09:04:05.115Z,0.83
2018-09-24T09:06:38.871Z,0.90
2018-09-24T09:09:16.038Z,0.80
2018-09-24T09:11:50.083Z,1.50
2018-09-24T09:14:23.916Z,1.27
2018-09-24T09:16:57.963Z,1.03
2018-09-24T09:19:31.775Z,1.50
2018-09-24T09:22:05.492Z,1.20
2018-09-24T09:24:39.106Z,1.00
2018-09-24T09:27:12.991Z,0.90
2018-09-24T09:29:46.639Z,1.20
2018-09-24T09:32:20.399Z,1.33
2018-09-24T09:34:54.183Z,1.20
2018-09-24T09:37:27.966Z,2.33
2018-09-24T09:40:01.813Z,1.27
2018-09-24T09:42:35.538Z,1.07
2018-09-24T09:45:09.339Z,1.20
2018-09-24T09:47:43.142Z,1.27
2018-09-24T09:50:17.037Z,1.10
2018-09-24T09:52:51.563Z,0.90
2018-09-24T09:55:25.935Z,0.87
2018-09-24T09:57:59.607Z,1.27
2018-09-24T10:00:33.531Z,1.50
2018-09-24T10:03:07.452Z,0.67
2018-09-24T10:05:41.199Z,1.07
2018-09-24T10:08:15.071Z,0.83
2018-09-24T10:10:48.906Z,1.07
2018-09-24T10:13:23.695Z,0.63
2018-09-24T10:15:57.349Z,1.10
2018-09-24T10:18:31.093Z,1.00
2018-09-24T10:21:05.031Z,0.90
2018-09-24T10:23:38.932Z,0.70
2018-09-24T10:26:12.793Z,0.70
2018-09-24T10:28:46.474Z,0.80
2018-09-24T10:31:20.260Z,0.90
2018-09-24T10:33:54.163Z,0.83
2018-09-24T10:36:27.856Z,1.20
2018-09-24T10:39:02.036Z,1.27
2018-09-24T10:41:35.805Z,0.70
2018-09-24T10:44:09.881Z,0.83
2018-09-24T10:46:43.589Z,0.80
2018-09-24T10:49:18.424Z,1.13
2018-09-24T10:51:52.113Z,0.93
2018-09-24T10:54:25.971Z,0.90
2018-09-24T10:56:59.817Z,0.73
2018-09-24T10:59:33.636Z,1.27
2018-09-24T11:02:07.475Z,1.00
2018-09-24T11:04:41.362Z,1.00
2018-09-24T11:07:15.179Z,0.63
2018-09-24T11:09:49.023Z,0.83
2018-09-24T11:12:22.903Z,0.97
2018-09-24T11:14:57.334Z,0.90
2018-09-24T11:17:31.134Z,0.93
2018-09-24T11:20:04.868Z,1.40
2018-09-24T11:22:38.670Z,0.80
2018-09-24T11:25:12.362Z,1.23
2018-09-24T11:27:45.876Z,1.03
2018-09-24T11:30:19.711Z,0.63
2018-09-24T11:32:53.490Z,0.80
2018-09-24T11:35:27.376Z,1.93
2018-09-24T11:38:01.076Z,0.80
2018-09-24T11:40:34.806Z,0.83
2018-09-24T11:43:08.507Z,1.10
2018-09-24T11:45:42.332Z,0.93
2018-09-24T11:48:16.139Z,0.80
2018-09-24T11:50:50.087Z,1.87
2018-09-24T11:53:23.878Z,0.97
2018-09-24T11:55:57.567Z,0.50
2018-09-24T11:58:31.230Z,1.00
2018-09-24T12:01:05.039Z,1.00
2018-09-24T12:03:38.888Z,0.73
2018-09-24T12:06:13.103Z,0.90
2018-09-24T12:08:46.805Z,0.73
2018-09-24T12:11:20.467Z,0.50
2018-09-24T12:13:54.267Z,0.63
2018-09-24T12:16:28.005Z,0.50
2018-09-24T12:19:01.725Z,0.83
2018-09-24T12:21:35.427Z,1.00
2018-09-24T12:24:09.204Z,0.70
2018-09-24T12:26:42.891Z,0.77
2018-09-24T12:29:16.659Z,1.33
2018-09-24T12:31:50.239Z,0.90
2018-09-24T12:34:24.066Z,1.37
2018-09-24T12:36:57.815Z,0.50
2018-09-24T12:39:31.499Z,0.90
2018-09-24T12:42:05.755Z,0.70
2018-09-24T12:44:39.479Z,0.50
2018-09-24T12:47:13.415Z,0.73
2018-09-24T12:49:47.207Z,0.90
2018-09-24T12:52:21.135Z,0.70
2018-09-24T12:54:54.730Z,0.57
2018-09-24T12:57:28.671Z,0.90
2018-09-24T13:00:02.512Z,1.13
2018-09-24T13:02:36.651Z,0.83
2018-09-24T13:05:10.395Z,0.50
2018-09-24T13:07:44.262Z,0.87
2018-09-24T13:10:18.131Z,1.13
2018-09-24T13:12:51.931Z,0.90
2018-09-24T13:15:25.683Z,0.73
2018-09-24T13:17:59.478Z,0.70
2018-09-24T13:20:33.373Z,0.73
2018-09-24T13:23:07.092Z,0.97
2018-09-24T13:25:40.927Z,0.87
2018-09-24T13:28:14.926Z,0.90
2018-09-24T13:30:48.883Z,1.10
2018-09-24T13:33:22.820Z,1.03
2018-09-24T13:35:57.471Z,0.83
2018-09-24T13:38:31.538Z,0.67
2018-09-24T13:41:05.322Z,0.60
2018-09-24T13:43:39.159Z,0.70
2018-09-24T13:46:13.038Z,1.70
2018-09-24T13:48:46.898Z,0.53
2018-09-24T13:51:20.890Z,0.70
2018-09-24T13:53:54.835Z,0.83
2018-09-24T13:56:28.603Z,0.80
2018-09-24T13:59:02.362Z,0.60
2018-09-24T14:01:36.123Z,0.50
2018-09-24T14:04:09.675Z,0.60
2018-09-24T14:06:43.418Z,0.60
2018-09-24T14:09:17.611Z,0.73
2018-09-24T14:11:51.426Z,0.60
2018-09-24T14:14:25.235Z,0.70
2018-09-24T14:16:58.978Z,0.77
2018-09-24T14:19:33.011Z,0.70
2018-09-24T14:22:06.826Z,0.57
2018-09-24T14:24:40.732Z,0.40
2018-09-24T14:27:14.795Z,0.70
2018-09-24T14:29:48.951Z,0.70
2018-09-24T14:32:22.678Z,0.53
2018-09-24T14:34:59.399Z,0.50
2018-09-24T14:37:33.165Z,0.50
2018-09-24T14:40:07.025Z,0.47
2018-09-24T14:42:40.906Z,0.60
2018-09-24T14:45:14.634Z,0.50
2018-09-24T14:47:48.388Z,0.40
2018-09-24T14:50:22.476Z,0.50
2018-09-24T14:52:56.218Z,0.50
2018-09-24T14:55:30.189Z,0.70
2018-09-24T14:58:03.803Z,0.50
2018-09-24T15:00:37.715Z,0.30
2018-09-24T15:03:11.592Z,0.60
2018-09-24T15:05:45.555Z,0.40
2018-09-24T15:08:19.283Z,0.43
2018-09-24T15:10:54.383Z,0.87
2018-09-24T15:13:28.174Z,0.67
2018-09-24T15:16:01.937Z,0.50
2018-09-24T15:18:35.899Z,0.60
2018-09-24T15:21:09.980Z,0.90
2018-09-24T15:23:43.623Z,0.67
2018-09-24T15:26:17.333Z,0.50
2018-09-24T15:28:52.436Z,0.83
2018-09-24T15:31:26.204Z,0.60
2018-09-24T15:34:00.260Z,0.50
2018-09-24T15:36:34.698Z,0.40
2018-09-24T15:39:08.667Z,0.50
2018-09-24T15:41:42.659Z,0.40
2018-09-24T15:44:16.483Z,0.50
2018-09-24T15:46:50.239Z,0.40
2018-09-24T15:49:23.819Z,0.40
2018-09-24T15:51:57.736Z,0.50
2018-09-24T15:54:31.231Z,0.50
2018-09-24T15:57:04.951Z,0.40
2018-09-24T15:59:38.751Z,0.50
2018-09-24T16:02:12.470Z,0.60
2018-09-24T16:04:46.196Z,0.60
2018-09-24T16:07:20.347Z,0.80
2018-09-24T16:09:54.145Z,0.50
2018-09-24T16:12:27.994Z,0.50
2018-09-24T16:15:01.819Z,0.57
2018-09-24T16:17:35.808Z,0.60
2018-09-24T16:20:11.581Z,0.40
2018-09-24T16:22:45.444Z,0.70
2018-09-24T16:25:19.310Z,0.80
2018-09-24T16:27:53.231Z,0.80
2018-09-24T16:30:26.989Z,1.20
2018-09-24T16:33:00.821Z,5.07
2018-09-24T16:35:34.731Z,7.30
2018-09-24T16:38:08.769Z,0.70
2018-09-24T16:40:42.550Z,0.60
2018-09-24T16:43:16.408Z,1.00
2018-09-24T16:45:50.099Z,2.10
2018-09-24T16:48:23.828Z,1.47
2018-09-24T16:50:57.537Z,3.50
2018-09-24T16:53:31.382Z,1.33
2018-09-24T16:56:05.083Z,3.00
2018-09-24T16:58:38.817Z,1.40
2018-09-24T17:01:12.838Z,2.13
2018-09-24T17:03:46.978Z,1.10
2018-09-24T17:06:20.799Z,0.83
2018-09-24T17:08:54.635Z,0.50
2018-09-24T17:11:28.470Z,0.70
2018-09-24T17:14:02.287Z,0.60
2018-09-24T17:16:35.987Z,0.60
2018-09-24T17:19:09.691Z,0.50
2018-09-24T17:21:43.535Z,0.60
2018-09-24T17:24:17.315Z,0.40
2018-09-24T17:26:51.096Z,0.50
2018-09-24T17:29:25.148Z,0.40
2018-09-24T17:31:58.923Z,0.40
2018-09-24T17:34:32.763Z,0.40
2018-09-24T17:37:06.657Z,0.63
2018-09-24T17:39:40.576Z,0.40
2018-09-24T17:42:14.474Z,0.50
2018-09-24T17:44:48.331Z,0.60
2018-09-24T17:47:22.058Z,0.40
2018-09-24T17:49:55.899Z,0.60
2018-09-24T17:52:29.515Z,0.60
2018-09-24T17:55:03.401Z,0.40
2018-09-24T17:57:38.129Z,0.47
2018-09-24T18:00:12.691Z,0.40
2018-09-24T18:02:47.072Z,0.70
2018-09-24T18:05:20.946Z,1.00
2018-09-24T18:07:54.641Z,0.50
2018-09-24T18:10:28.674Z,0.60
2018-09-24T18:13:02.326Z,0.57
2018-09-24T18:15:36.236Z,0.70
2018-09-24T18:18:09.914Z,1.10
2018-09-24T18:20:43.881Z,0.63
2018-09-24T18:23:17.670Z,0.80
2018-09-24T18:25:51.498Z,0.80
2018-09-24T18:28:25.211Z,0.70
2018-09-24T18:30:59.023Z,0.70
2018-09-24T18:33:32.831Z,0.50
2018-09-24T18:36:06.565Z,0.50
2018-09-24T18:38:40.244Z,0.80
2018-09-24T18:41:14.343Z,0.60
2018-09-24T18:43:48.074Z,0.60
2018-09-24T18:46:22.828Z,1.00
2018-09-24T18:48:56.515Z,0.50
2018-09-24T18:51:30.447Z,0.60
2018-09-24T18:54:04.219Z,0.93
2018-09-24T18:56:38.795Z,0.53
2018-09-24T18:59:12.730Z,1.00
2018-09-24T19:01:47.511Z,0.63
2018-09-24T19:04:21.360Z,0.60
2018-09-24T19:06:55.252Z,0.60
2018-09-24T19:09:29.065Z,0.80
2018-09-24T19:12:02.933Z,0.40
2018-09-24T19:14:36.737Z,1.07
2018-09-24T19:17:10.671Z,0.60
2018-09-24T19:19:44.719Z,0.60
2018-09-24T19:22:18.892Z,0.70
2018-09-24T19:24:52.764Z,0.70
2018-09-24T19:27:26.736Z,0.93
2018-09-24T19:30:00.509Z,0.93
2018-09-24T19:32:34.353Z,0.57
2018-09-24T19:35:08.132Z,0.90
2018-09-24T19:37:42.230Z,0.83
2018-09-24T19:40:16.059Z,0.50
2018-09-24T19:42:50.062Z,0.50
2018-09-24T19:45:24.259Z,0.90
2018-09-24T19:47:58.230Z,0.50
2018-09-24T19:50:32.096Z,0.70
2018-09-24T19:53:05.955Z,0.70
2018-09-24T19:55:40.543Z,0.63
2018-09-24T19:58:14.439Z,0.73
2018-09-24T20:00:48.203Z,0.63
2018-09-24T20:03:21.986Z,0.90
2018-09-24T20:05:56.701Z,0.97
2018-09-24T20:08:30.540Z,0.50
2018-09-24T20:11:04.332Z,0.70
2018-09-24T20:13:38.452Z,0.80
2018-09-24T20:16:12.298Z,0.50
2018-09-24T20:18:46.211Z,0.67
2018-09-24T20:21:20.002Z,1.13
2018-09-24T20:23:53.795Z,1.57
2018-09-24T20:26:27.469Z,0.50
2018-09-24T20:29:01.370Z,0.87
2018-09-24T20:31:34.990Z,0.90
2018-09-24T20:34:08.823Z,0.77
2018-09-24T20:36:42.535Z,0.70
2018-09-24T20:39:16.359Z,0.60
2018-09-24T20:41:50.035Z,1.00
2018-09-24T20:44:23.732Z,0.70
2018-09-24T20:46:57.466Z,1.17
2018-09-24T20:49:31.314Z,0.63
2018-09-24T20:52:05.091Z,0.90
2018-09-24T20:54:38.892Z,1.33
2018-09-24T20:57:12.812Z,1.50
2018-09-24T20:59:53.584Z,1.03
2018-09-24T21:02:27.258Z,0.60
2018-09-24T21:05:01.283Z,1.20
2018-09-24T21:07:34.992Z,0.60
2018-09-24T21:10:09.028Z,1.07
2018-09-24T21:12:42.631Z,0.70
2018-09-24T21:15:16.343Z,1.73
2018-09-24T21:17:50.178Z,1.17
2018-09-24T21:20:23.955Z,1.30
2018-09-24T21:22:57.739Z,1.23
2018-09-24T21:25:31.498Z,1.30
2018-09-24T21:28:05.278Z,1.60
2018-09-24T21:30:38.974Z,1.63
2018-09-24T21:33:12.678Z,1.17
2018-09-24T21:35:46.427Z,1.03
2018-09-24T21:38:20.199Z,1.27
2018-09-24T21:40:53.956Z,1.00
2018-09-24T21:43:27.654Z,0.73
2018-09-24T21:46:01.578Z,0.63
2018-09-24T21:48:35.202Z,1.03
2018-09-24T21:51:09.131Z,1.10
2018-09-24T21:53:42.911Z,1.10
2018-09-24T21:56:16.770Z,0.70
2018-09-24T21:58:50.463Z,1.20
2018-09-24T22:01:24.336Z,0.97
2018-09-24T22:03:57.889Z,1.07
2018-09-24T22:06:31.710Z,1.10
2018-09-24T22:09:05.565Z,0.63
2018-09-24T22:11:39.375Z,1.20
2018-09-24T22:14:13.032Z,1.40
2018-09-24T22:16:46.890Z,1.80
2018-09-24T22:19:20.567Z,0.93
2018-09-24T22:21:54.443Z,0.83
2018-09-24T22:24:28.256Z,0.80
2018-09-24T22:27:02.147Z,0.80
2018-09-24T22:29:35.887Z,1.10
2018-09-24T22:32:09.919Z,0.70
2018-09-24T22:34:43.735Z,0.77
2018-09-24T22:37:17.707Z,0.87
2018-09-24T22:39:51.346Z,0.73
2018-09-24T22:42:25.191Z,1.10
2018-09-24T22:44:58.878Z,0.60
2018-09-24T22:47:32.615Z,1.23
2018-09-24T22:50:06.306Z,0.97
2018-09-24T22:52:40.251Z,1.03
2018-09-24T22:55:13.966Z,1.00
2018-09-24T22:57:47.735Z,1.00
2018-09-24T23:00:21.582Z,0.97
2018-09-24T23:02:55.507Z,0.70
2018-09-24T23:05:29.263Z,0.70
2018-09-24T23:08:03.051Z,1.00
2018-09-24T23:10:36.791Z,0.83
2018-09-24T23:13:10.907Z,1.00
2018-09-24T23:15:44.622Z,1.20
2018-09-24T23:18:18.438Z,1.90
2018-09-24T23:20:52.187Z,1.63
2018-09-24T23:23:26.024Z,1.63
2018-09-24T23:25:59.667Z,2.00
2018-09-24T23:28:33.415Z,1.47
2018-09-24T23:31:07.136Z,1.40
2018-09-24T23:33:40.851Z,1.30
2018-09-24T23:36:14.296Z,0.90
2018-09-24T23:38:48.139Z,1.33
2018-09-24T23:41:21.748Z,1.00
2018-09-24T23:43:55.403Z,0.90
2018-09-24T23:46:29.227Z,1.60
2018-09-24T23:49:03.063Z,0.80
2018-09-24T23:51:36.875Z,0.90
2018-09-24T23:54:11.019Z,1.10
2018-09-24T23:56:44.682Z,0.93
2018-09-24T23:59:18.499Z,1.37
